Time;durP1;ratioP1;P1;durP2;ratioP2;P2;SDS_P1;SDS_P2;PMS_P1;PMS_P2;Temp;Humidity;BMP_temperature;BMP_pressure;BME280_temperature;BME280_humidity;BME280_pressure;Samples;Min_cycle;Max_cycle;Signal;HPM_P1;HPM_P2
2021/07/28 00:02:08;;;;;;;19.50;10.90;;;;;;;17.06;92.74;96404.06;3568819;39;20464;-73
2021/07/28 00:04:37;;;;;;;14.67;10.80;;;;;;;17.08;91.50;96402.09;3565337;40;21210;-72
2021/07/28 00:07:09;;;;;;;14.83;9.70;;;;;;;16.98;91.94;96412.75;3557057;40;20841;-72
2021/07/28 00:09:37;;;;;;;15.57;9.93;;;;;;;17.07;91.82;96405.72;3568779;40;20884;-72
2021/07/28 00:12:06;;;;;;;13.37;10.20;;;;;;;17.04;91.18;96406.84;3568176;40;20453;-73
2021/07/28 00:14:34;;;;;;;17.17;10.37;;;;;;;16.97;91.18;96406.63;3566676;40;20458;-73
2021/07/28 00:17:04;;;;;;;16.40;10.07;;;;;;;16.90;91.70;96410.84;3567243;40;20778;-72
2021/07/28 00:19:44;;;;;;;14.90;10.03;;;;;;;16.98;90.69;96412.75;3565817;40;20492;-72
2021/07/28 00:25:00;;;;;;;14.57;10.13;;;;;;;16.87;90.87;96405.00;3557333;40;20923;-72
2021/07/28 00:27:27;;;;;;;16.30;9.90;;;;;;;16.78;92.04;96402.25;3556402;40;20473;-72
2021/07/28 00:29:56;;;;;;;13.63;10.53;;;;;;;16.70;92.06;96399.53;3554711;40;20467;-72
2021/07/28 00:32:24;;;;;;;15.70;11.10;;;;;;;16.80;90.89;96407.41;3555770;40;20712;-72
2021/07/28 00:34:52;;;;;;;15.50;11.00;;;;;;;16.87;91.21;96395.25;3557884;40;20870;-72
2021/07/28 00:37:21;;;;;;;15.40;11.30;;;;;;;17.05;90.76;96402.38;3555586;40;20831;-73
2021/07/28 00:39:49;;;;;;;17.80;11.70;;;;;;;16.96;90.84;96409.41;3557124;40;20786;-73
2021/07/28 00:42:17;;;;;;;19.33;11.57;;;;;;;17.06;91.20;96404.88;3557437;40;20810;-73
2021/07/28 00:44:45;;;;;;;18.20;12.77;;;;;;;16.59;91.42;96402.38;3556350;40;20905;-73
2021/07/28 00:47:16;;;;;;;16.63;11.23;;;;;;;16.65;90.94;96395.66;3547878;40;20524;-72
2021/07/28 00:49:46;;;;;;;15.13;11.13;;;;;;;16.75;90.82;96396.44;3556757;40;20699;-73
2021/07/28 00:52:14;;;;;;;16.30;12.37;;;;;;;16.79;90.22;96398.63;3556709;40;20856;-73
2021/07/28 00:54:43;;;;;;;19.10;11.43;;;;;;;16.76;90.86;96398.09;3555246;40;20463;-73
2021/07/28 00:57:11;;;;;;;16.13;11.20;;;;;;;16.84;91.00;96400.88;3555933;40;20481;-72
2021/07/28 00:59:39;;;;;;;17.37;12.93;;;;;;;16.76;91.26;96398.94;3557799;40;20528;-72
2021/07/28 01:02:07;;;;;;;16.93;12.23;;;;;;;16.67;91.79;96397.16;3557677;40;20447;-74
2021/07/28 01:04:35;;;;;;;16.70;11.90;;;;;;;16.72;91.28;96402.84;3557549;40;20899;-73
2021/07/28 01:07:04;;;;;;;20.13;12.63;;;;;;;16.54;92.33;96415.19;3561945;40;20775;-73
2021/07/28 01:09:32;;;;;;;16.80;10.97;;;;;;;16.43;93.22;96420.69;3560208;40;20466;-72
2021/07/28 01:12:04;;;;;;;17.80;13.27;;;;;;;16.44;93.60;96409.94;3557693;40;20447;-73
2021/07/28 01:14:32;;;;;;;16.43;12.10;;;;;;;16.12;95.95;96415.66;3559680;40;21192;-72
2021/07/28 01:17:01;;;;;;;19.07;12.87;;;;;;;16.00;95.20;96415.81;3557388;40;20534;-71
2021/07/28 01:19:36;;;;;;;20.40;13.80;;;;;;;16.37;94.78;96414.16;3554978;40;20839;-71
2021/07/28 01:22:04;;;;;;;24.33;16.13;;;;;;;15.92;96.69;96420.16;3566406;40;20829;-70
2021/07/28 01:24:36;;;;;;;17.83;13.10;;;;;;;16.22;95.12;96413.81;3566617;40;20846;-71
2021/07/28 01:27:06;;;;;;;22.80;14.43;;;;;;;16.36;94.85;96408.03;3549120;40;20901;-72
2021/07/28 01:29:34;;;;;;;24.13;14.93;;;;;;;16.56;94.29;96400.00;3564489;40;21039;-72
2021/07/28 01:32:02;;;;;;;20.97;13.70;;;;;;;16.72;93.57;96402.00;3567889;40;20445;-70
2021/07/28 01:34:30;;;;;;;26.63;13.97;;;;;;;16.73;92.24;96398.38;3565144;40;20822;-71
2021/07/28 01:37:01;;;;;;;18.70;13.00;;;;;;;16.63;92.43;96398.44;3556646;40;20960;-72
2021/07/28 01:39:29;;;;;;;20.17;12.60;;;;;;;16.72;92.99;96391.44;3567918;40;20535;-73
2021/07/28 01:42:02;;;;;;;19.60;14.33;;;;;;;16.78;92.86;96401.44;3568116;40;20458;-72
2021/07/28 01:44:32;;;;;;;17.37;13.23;;;;;;;16.79;92.65;96395.97;3563840;40;20451;-72
2021/07/28 01:47:00;;;;;;;19.73;12.83;;;;;;;16.78;92.09;96393.50;3568100;40;20453;-72
2021/07/28 01:49:28;;;;;;;22.07;13.40;;;;;;;16.77;92.57;96389.19;3566271;40;20564;-72
2021/07/28 01:51:56;;;;;;;15.63;12.53;;;;;;;16.77;nan;96392.66;3571039;40;20812;-72
2021/07/28 01:54:24;;;;;;;27.60;12.37;;;;;;;16.77;91.43;96394.47;3571135;40;20911;-75
2021/07/28 01:56:52;;;;;;;19.83;11.33;;;;;;;16.72;91.66;96394.94;3566817;40;20873;-74
2021/07/28 01:59:23;;;;;;;17.30;11.20;;;;;;;16.56;91.80;96405.28;3566629;40;20833;-74
2021/07/28 02:01:50;;;;;;;14.63;10.33;;;;;;;16.41;91.90;96399.69;3568082;40;20777;-74
2021/07/28 02:04:18;;;;;;;18.47;10.63;;;;;;;16.35;92.19;96395.81;3567794;40;20701;-72
2021/07/28 02:06:46;;;;;;;20.00;11.83;;;;;;;16.34;92.18;96398.59;3568896;40;20445;-71
2021/07/28 02:09:14;;;;;;;19.57;12.40;;;;;;;16.34;92.76;96398.59;3565479;40;20475;-71
2021/07/28 02:11:42;;;;;;;15.60;10.87;;;;;;;16.30;91.84;96398.06;3568260;40;20753;-71
2021/07/28 02:14:10;;;;;;;14.63;11.97;;;;;;;16.20;92.56;96402.56;3568337;40;21064;-73
2021/07/28 02:16:39;;;;;;;13.97;11.13;;;;;;;16.16;92.67;96403.81;3568890;40;20465;-73
2021/07/28 02:19:08;;;;;;;19.27;11.97;;;;;;;16.06;93.67;96401.22;3568121;40;20476;-73
2021/07/28 02:21:36;;;;;;;21.77;11.30;;;;;;;15.85;93.50;96404.03;3566311;40;20594;-73
2021/07/28 02:24:04;;;;;;;13.37;10.60;;;;;;;15.96;93.63;96410.97;3566951;40;20710;-71
2021/07/28 02:26:32;;;;;;;15.07;11.23;;;;;;;15.89;92.73;96404.59;3570263;40;20531;-73
2021/07/28 02:29:00;;;;;;;15.40;9.60;;;;;;;15.94;93.06;96403.19;3558077;40;20667;-73
2021/07/28 02:31:27;;;;;;;18.20;10.00;;;;;;;15.94;92.84;96397.09;3551502;40;20749;-72
2021/07/28 02:33:57;;;;;;;17.70;10.93;;;;;;;15.87;92.76;96399.44;3565992;40;20454;-72
2021/07/28 02:36:24;;;;;;;17.07;10.13;;;;;;;15.90;92.91;96401.00;3568168;40;20810;-72
2021/07/28 02:38:52;;;;;;;12.77;8.63;;;;;;;15.85;93.18;96397.94;3567735;40;21094;-72
2021/07/28 02:41:20;;;;;;;18.67;8.63;;;;;;;15.70;92.56;96395.72;3568839;40;20845;-72
2021/07/28 02:43:48;;;;;;;11.50;8.23;;;;;;;15.63;93.02;96406.00;3567013;40;20730;-72
2021/07/28 02:46:16;;;;;;;12.30;8.53;;;;;;;15.64;92.58;96409.47;3565960;40;21135;-72
2021/07/28 02:48:44;;;;;;;13.40;8.60;;;;;;;15.71;92.98;96397.38;3556824;40;20923;-73
2021/07/28 02:51:13;;;;;;;14.00;9.73;;;;;;;15.69;92.25;96393.22;3558785;40;20467;-72
2021/07/28 02:53:41;;;;;;;15.87;9.90;;;;;;;15.74;92.00;96396.28;3565571;40;20575;-72
2021/07/28 02:56:08;;;;;;;21.40;10.13;;;;;;;15.65;92.17;96387.38;3568872;40;20488;-72
2021/07/28 02:58:36;;;;;;;25.57;11.70;;;;;;;15.70;91.68;96394.88;3566626;40;20825;-73
2021/07/28 03:01:04;;;;;;;15.27;10.77;;;;;;;15.66;92.27;96393.50;3568259;40;20519;-73
2021/07/28 03:03:32;;;;;;;14.10;9.70;;;;;;;15.00;94.90;96392.44;3565829;40;20536;-71
2021/07/28 03:06:02;;;;;;;10.70;7.77;;;;;;;15.03;95.28;96381.59;3569969;40;20454;-73
2021/07/28 03:08:31;;;;;;;13.20;9.00;;;;;;;15.20;94.58;96378.28;3568125;40;20781;-73
2021/07/28 03:11:02;;;;;;;9.97;7.97;;;;;;;15.32;93.63;96381.59;3565970;40;20447;-70
2021/07/28 03:13:30;;;;;;;14.23;8.37;;;;;;;15.33;93.50;96382.44;3569864;40;20542;-72
2021/07/28 03:16:05;;;;;;;14.57;8.90;;;;;;;15.28;92.88;96371.47;3567624;40;20799;-72
2021/07/28 03:18:33;;;;;;;11.07;7.80;;;;;;;15.35;92.76;96386.59;3567509;40;20460;-71
2021/07/28 03:21:01;;;;;;;15.87;7.80;;;;;;;15.18;92.80;96384.66;3565622;40;21138;-72
2021/07/28 03:23:31;;;;;;;11.47;8.13;;;;;;;15.07;93.50;96385.63;3566978;40;20873;-72
2021/07/28 03:25:59;;;;;;;13.47;9.03;;;;;;;15.22;92.59;96384.25;3566641;40;20649;-71
2021/07/28 03:28:27;;;;;;;9.23;6.83;;;;;;;15.31;92.27;96379.09;3566230;40;20461;-73
2021/07/28 03:30:56;;;;;;;15.67;7.80;;;;;;;15.29;92.11;96389.81;3569802;40;20463;-72
2021/07/28 03:33:28;;;;;;;17.57;7.73;;;;;;;15.27;91.97;96382.97;3563861;40;20457;-73
2021/07/28 03:35:56;;;;;;;14.03;7.63;;;;;;;15.25;91.83;96385.78;3572296;40;20453;-71
2021/07/28 03:38:25;;;;;;;12.20;7.83;;;;;;;15.19;91.72;96395.09;3573782;40;20461;-72
2021/07/28 03:40:56;;;;;;;16.53;7.20;;;;;;;15.20;91.40;96395.91;3570794;40;20493;-72
2021/07/28 03:43:24;;;;;;;12.20;7.60;;;;;;;14.97;92.56;96390.06;3557360;40;20871;-74
2021/07/28 03:45:55;;;;;;;11.57;7.50;;;;;;;15.03;91.78;96392.16;3565119;40;20567;-73
2021/07/28 03:48:29;;;;;;;9.30;7.03;;;;;;;15.05;92.29;96394.66;3576552;40;20480;-74
2021/07/28 03:50:59;;;;;;;12.63;7.83;;;;;;;14.82;93.73;96398.38;3554884;40;20801;-71
2021/07/28 03:53:28;;;;;;;10.83;6.87;;;;;;;14.83;93.24;96397.41;3564443;40;20761;-71
2021/07/28 03:55:58;;;;;;;11.60;7.67;;;;;;;14.92;92.53;96381.75;3567913;40;20529;-72
2021/07/28 03:58:25;;;;;;;7.50;5.50;;;;;;;15.02;92.31;96390.50;3566198;40;20469;-72
2021/07/28 04:00:54;;;;;;;9.63;6.80;;;;;;;14.91;92.06;96390.63;3566618;40;20732;-74
2021/07/28 04:03:22;;;;;;;7.20;6.13;;;;;;;14.91;93.35;96388.81;3567042;40;20500;-72
2021/07/28 04:05:54;;;;;;;11.80;6.60;;;;;;;14.98;92.20;96389.94;3569305;40;20555;-73
2021/07/28 04:08:21;;;;;;;10.40;6.60;;;;;;;14.99;92.05;96396.03;3568323;40;20873;-73
2021/07/28 04:10:49;;;;;;;8.27;6.10;;;;;;;14.58;93.59;96405.81;3568389;40;20446;-72
2021/07/28 04:13:19;;;;;;;11.60;6.73;;;;;;;14.33;94.70;96405.31;3566093;40;20834;-72
2021/07/28 04:15:47;;;;;;;12.60;6.80;;;;;;;14.49;94.74;96398.72;3566378;40;20927;-74
2021/07/28 04:18:18;;;;;;;9.07;6.47;;;;;;;14.29;95.76;96401.28;3559589;40;20539;-74
2021/07/28 04:20:46;;;;;;;9.07;6.90;;;;;;;14.75;94.48;96396.44;3568797;40;20558;-73
2021/07/28 04:23:14;;;;;;;12.27;7.27;;;;;;;14.94;93.41;96398.28;3554990;40;20547;-74
2021/07/28 04:25:42;;;;;;;9.47;6.90;;;;;;;14.86;93.16;96411.28;3557607;40;20484;-73
2021/07/28 04:28:10;;;;;;;13.10;6.67;;;;;;;15.02;92.56;96416.88;3549844;40;20831;-73
2021/07/28 04:30:40;;;;;;;10.93;6.77;;;;;;;14.90;94.62;96404.78;3566577;40;20854;-74
2021/07/28 04:33:07;;;;;;;12.67;7.07;;;;;;;15.04;93.53;96391.19;3565790;39;20471;-74
2021/07/28 04:35:35;;;;;;;8.93;6.43;;;;;;;15.17;92.11;96398.81;3567358;40;20479;-73
2021/07/28 04:38:03;;;;;;;8.33;6.13;;;;;;;15.21;91.83;96389.66;3556621;40;20798;-74
2021/07/28 04:40:31;;;;;;;10.40;6.20;;;;;;;15.34;92.02;96392.00;3566985;40;20539;-74
2021/07/28 04:42:59;;;;;;;10.17;6.00;;;;;;;15.42;91.92;96390.31;3554412;40;20814;-73
2021/07/28 04:45:27;;;;;;;12.60;6.43;;;;;;;15.50;91.65;96378.25;3567162;40;20442;-73
2021/07/28 04:47:56;;;;;;;16.57;7.20;;;;;;;15.41;91.71;96372.03;3567746;40;21109;-73
2021/07/28 04:50:24;;;;;;;11.03;6.47;;;;;;;15.54;91.08;96401.59;3567632;40;20536;-72
2021/07/28 04:52:52;;;;;;;9.37;6.50;;;;;;;15.59;90.25;96387.97;3570429;40;21002;-73
2021/07/28 04:55:20;;;;;;;15.13;6.80;;;;;;;15.33;91.73;96396.47;3569969;40;20849;-73
2021/07/28 04:57:48;;;;;;;12.17;6.70;;;;;;;15.38;90.88;96404.78;3568105;40;20849;-73
2021/07/28 05:00:16;;;;;;;9.03;6.57;;;;;;;15.29;90.83;96418.81;3568104;40;20961;-74
2021/07/28 05:02:44;;;;;;;9.80;6.50;;;;;;;15.30;91.64;96422.28;3567060;40;21148;-74
2021/07/28 05:05:14;;;;;;;9.70;7.10;;;;;;;15.43;91.20;96426.31;3570567;40;20479;-74
2021/07/28 05:07:45;;;;;;;11.60;6.90;;;;;;;15.46;92.12;96416.44;3553146;40;20466;-74
2021/07/28 05:10:13;;;;;;;8.90;6.17;;;;;;;15.59;91.70;96412.53;3568577;40;20459;-73
2021/07/28 05:12:41;;;;;;;16.80;6.90;;;;;;;15.64;91.80;96417.38;3567670;39;20918;-74
2021/07/28 05:15:11;;;;;;;8.40;6.57;;;;;;;15.70;90.55;96419.47;3570305;40;20446;-74
2021/07/28 05:17:38;;;;;;;12.00;6.40;;;;;;;15.56;89.92;96411.97;3571720;40;21096;-73
2021/07/28 05:20:07;;;;;;;14.27;7.13;;;;;;;15.48;90.32;96407.41;3571966;40;20480;-73
2021/07/28 05:22:36;;;;;;;15.27;5.90;;;;;;;15.10;91.47;96406.47;3567072;40;20485;-73
2021/07/28 05:25:05;;;;;;;12.47;6.13;;;;;;;15.08;92.16;96410.22;3573252;40;20426;-74
2021/07/28 05:27:34;;;;;;;9.50;5.83;;;;;;;15.37;90.89;96404.94;3568560;40;20451;-73
2021/07/28 05:30:02;;;;;;;10.90;6.00;;;;;;;15.65;91.62;96403.22;3569547;40;21150;-73
2021/07/28 05:32:30;;;;;;;9.67;5.63;;;;;;;15.41;91.88;96408.97;3561464;39;20465;-73
2021/07/28 05:34:58;;;;;;;9.20;6.03;;;;;;;15.03;92.03;96407.97;3575974;40;20817;-73
2021/07/28 05:37:28;;;;;;;13.27;7.00;;;;;;;14.96;93.53;96401.59;3567029;40;20472;-73
2021/07/28 05:39:58;;;;;;;8.60;5.70;;;;;;;15.09;91.19;96407.41;3561312;40;20521;-73
2021/07/28 05:42:26;;;;;;;10.83;5.43;;;;;;;15.04;92.16;96401.75;3568668;39;20466;-74
2021/07/28 05:44:54;;;;;;;11.33;5.83;;;;;;;15.29;90.27;96410.91;3564686;40;20932;-73
2021/07/28 05:47:22;;;;;;;9.67;6.67;;;;;;;15.49;90.07;96413.53;3567817;40;20446;-74
2021/07/28 05:49:51;;;;;;;10.93;6.40;;;;;;;15.44;90.53;96411.31;3571792;40;20454;-74
2021/07/28 05:52:19;;;;;;;13.40;6.47;;;;;;;15.62;89.94;96421.97;3572287;40;21104;-73
2021/07/28 05:54:47;;;;;;;11.10;6.47;;;;;;;15.35;91.08;96414.81;3570792;40;20745;-74
2021/07/28 05:57:16;;;;;;;10.63;6.60;;;;;;;15.35;91.25;96418.25;3569904;40;20884;-74
2021/07/28 05:59:44;;;;;;;12.20;6.17;;;;;;;15.27;91.08;96419.91;3570376;40;20769;-73
2021/07/28 06:02:12;;;;;;;9.97;6.43;;;;;;;14.98;93.35;96426.84;3562892;39;20828;-74
2021/07/28 06:04:40;;;;;;;13.27;6.83;;;;;;;15.11;93.45;96431.00;3569993;40;20448;-73
2021/07/28 06:07:09;;;;;;;9.00;6.20;;;;;;;15.34;92.23;96434.22;3569487;40;20469;-74
2021/07/28 06:09:37;;;;;;;11.33;7.10;;;;;;;15.29;92.11;96431.16;3559862;40;20835;-74
2021/07/28 06:12:06;;;;;;;15.13;6.73;;;;;;;15.40;90.24;96420.47;3570532;40;20755;-74
2021/07/28 06:14:36;;;;;;;8.00;6.20;;;;;;;15.43;88.87;96425.47;3569913;40;20565;-74
2021/07/28 06:17:05;;;;;;;11.20;5.60;;;;;;;15.68;89.75;96423.22;3568014;40;20454;-74
2021/07/28 06:19:33;;;;;;;9.87;6.37;;;;;;;15.74;90.03;96427.97;3573231;40;20727;-74
2021/07/28 06:22:01;;;;;;;10.70;6.00;;;;;;;15.77;89.92;96425.06;3567090;39;20491;-74
2021/07/28 06:24:29;;;;;;;10.93;6.60;;;;;;;15.90;89.44;96448.53;3568429;40;20466;-73
2021/07/28 06:26:57;;;;;;;10.17;6.20;;;;;;;15.72;91.72;96453.63;3568886;40;20570;-73
2021/07/28 06:29:25;;;;;;;14.40;6.80;;;;;;;15.81;87.46;96445.72;3552004;40;20476;-73
2021/07/28 06:32:08;;;;;;;14.50;7.30;;;;;;;15.75;89.84;96453.41;3569460;40;20849;-73
2021/07/28 06:34:37;;;;;;;10.33;5.87;;;;;;;15.42;90.24;96447.56;3566092;40;20848;-73
2021/07/28 06:37:08;;;;;;;13.60;5.97;;;;;;;15.48;88.93;96448.81;3561774;40;20547;-73
2021/07/28 06:39:36;;;;;;;9.13;5.67;;;;;;;15.62;90.45;96443.94;3571073;40;20474;-74
2021/07/28 06:42:04;;;;;;;12.93;6.13;;;;;;;15.65;90.56;96442.00;3567847;40;20596;-74
2021/07/28 06:44:32;;;;;;;12.50;6.10;;;;;;;15.96;87.39;96442.66;3558656;40;20465;-74
2021/07/28 06:47:00;;;;;;;12.23;7.53;;;;;;;16.09;86.91;96451.13;3569563;40;20965;-74
2021/07/28 06:49:29;;;;;;;11.33;6.57;;;;;;;16.29;86.55;96459.81;3569824;39;20454;-73
2021/07/28 06:51:57;;;;;;;8.00;6.03;;;;;;;16.26;86.52;96451.34;3559322;40;20480;-73
2021/07/28 06:54:25;;;;;;;9.50;5.77;;;;;;;16.23;86.28;96449.81;3571749;40;20486;-74
2021/07/28 06:56:53;;;;;;;16.17;5.90;;;;;;;16.41;85.17;96456.00;3559944;40;20478;-73
2021/07/28 06:59:20;;;;;;;6.77;5.83;;;;;;;16.25;86.16;96457.59;3569643;40;20762;-73
2021/07/28 07:01:50;;;;;;;12.53;5.60;;;;;;;16.12;87.69;96450.00;3571683;40;20520;-73
2021/07/28 07:04:18;;;;;;;11.90;6.33;;;;;;;16.15;87.90;96439.13;3568282;40;20956;-73
2021/07/28 07:06:47;;;;;;;20.30;5.97;;;;;;;16.08;88.60;96448.63;3567963;40;20437;-73
2021/07/28 07:09:15;;;;;;;14.60;6.87;;;;;;;16.23;87.33;96451.59;3557543;40;20447;-74
2021/07/28 07:11:43;;;;;;;16.30;8.00;;;;;;;16.14;87.70;96445.41;3567436;40;20967;-71
2021/07/28 07:14:11;;;;;;;14.00;6.47;;;;;;;16.19;88.14;96448.41;3569245;40;20742;-73
2021/07/28 07:16:39;;;;;;;13.60;6.93;;;;;;;16.26;87.63;96449.53;3583306;40;20554;-74
2021/07/28 07:19:07;;;;;;;10.00;6.93;;;;;;;16.30;86.15;96442.97;3572914;40;20465;-73
2021/07/28 07:21:35;;;;;;;14.70;6.83;;;;;;;16.23;86.81;96455.09;3573727;40;20854;-73
2021/07/28 07:24:06;;;;;;;8.00;6.27;;;;;;;16.27;87.64;96461.75;3573505;40;20479;-71
2021/07/28 07:26:34;;;;;;;9.73;6.00;;;;;;;16.46;87.00;96462.66;3573467;40;20447;-72
2021/07/28 07:29:03;;;;;;;16.00;8.20;;;;;;;16.39;86.36;96473.81;3573772;40;20462;-74
2021/07/28 07:31:30;;;;;;;9.77;6.10;;;;;;;16.31;86.35;96470.25;3571570;40;20830;-71
2021/07/28 07:33:59;;;;;;;18.10;9.43;;;;;;;16.43;86.48;96471.72;3557904;40;20451;-74
2021/07/28 07:36:27;;;;;;;25.67;14.77;;;;;;;16.50;86.04;96471.97;3574791;40;20454;-73
2021/07/28 07:38:55;;;;;;;9.83;6.87;;;;;;;16.41;86.32;96471.84;3571544;40;20469;-74
2021/07/28 07:41:24;;;;;;;18.40;7.70;;;;;;;16.44;86.36;96476.00;3568016;40;20548;-72
2021/07/28 07:43:52;;;;;;;11.30;7.33;;;;;;;16.33;86.10;96469.13;3568367;40;21023;-73
2021/07/28 07:46:20;;;;;;;11.43;6.93;;;;;;;16.33;85.76;96476.22;3567727;40;20890;-73
2021/07/28 07:48:49;;;;;;;7.93;5.40;;;;;;;16.43;86.48;96476.19;3563397;40;20482;-71
2021/07/28 07:51:22;;;;;;;11.07;6.50;;;;;;;16.39;85.54;96473.00;3565253;40;20790;-72
2021/07/28 07:53:50;;;;;;;11.57;6.20;;;;;;;16.27;86.45;96472.34;3544790;40;20561;-71
2021/07/28 07:56:18;;;;;;;10.73;6.17;;;;;;;16.36;86.08;96476.72;3551978;40;20459;-73
2021/07/28 07:58:48;;;;;;;14.13;6.43;;;;;;;16.33;86.22;96479.69;3547674;40;21181;-74
2021/07/28 08:01:16;;;;;;;11.70;6.67;;;;;;;16.50;85.49;96477.25;3547971;40;20514;-71
2021/07/28 08:03:44;;;;;;;13.70;6.83;;;;;;;16.36;85.76;96482.00;3536519;40;20472;-72
2021/07/28 08:06:12;;;;;;;11.27;5.37;;;;;;;16.41;85.35;96482.44;3558481;40;20878;-73
2021/07/28 08:08:40;;;;;;;9.93;6.30;;;;;;;16.52;86.09;96475.28;3557033;40;20846;-74
2021/07/28 08:11:09;;;;;;;11.80;6.37;;;;;;;16.64;85.47;96478.56;3552811;40;20461;-73
2021/07/28 08:13:37;;;;;;;11.07;6.37;;;;;;;16.65;84.73;96474.97;3566288;39;20477;-72
2021/07/28 08:16:11;;;;;;;9.57;5.50;;;;;;;16.50;83.69;96485.19;3579393;39;20844;-73
2021/07/28 08:18:39;;;;;;;8.90;6.67;;;;;;;16.54;86.10;96468.91;3576604;39;20482;-72
2021/07/28 08:21:09;;;;;;;9.53;6.30;;;;;;;16.54;87.18;96460.13;3575303;40;20476;-73
2021/07/28 08:23:37;;;;;;;15.43;6.47;;;;;;;16.68;84.76;96467.59;3577141;39;20829;-71
2021/07/28 08:26:05;;;;;;;8.70;6.00;;;;;;;16.73;85.50;96462.66;3577302;39;20820;-73
2021/07/28 08:28:33;;;;;;;10.43;7.27;;;;;;;16.79;85.16;96455.97;3577268;39;21130;-72
2021/07/28 08:31:01;;;;;;;8.93;6.30;;;;;;;16.74;84.11;96453.78;3578373;39;20803;-73
2021/07/28 08:33:31;;;;;;;10.40;6.20;;;;;;;16.90;84.70;96453.16;3578026;39;21071;-70
2021/07/28 08:36:01;;;;;;;14.70;6.47;;;;;;;16.76;84.73;96459.75;3578928;39;20459;-72
2021/07/28 08:38:30;;;;;;;10.07;6.27;;;;;;;16.96;84.39;96455.19;3577709;39;21168;-72
2021/07/28 08:41:01;;;;;;;10.03;6.50;;;;;;;16.73;85.04;96454.75;3577709;39;20692;-73
2021/07/28 08:43:31;;;;;;;9.67;6.53;;;;;;;16.91;82.36;96452.16;3578120;39;20523;-72
2021/07/28 08:46:01;;;;;;;9.67;6.00;;;;;;;16.98;83.84;96444.47;3577151;39;20434;-72
2021/07/28 08:48:31;;;;;;;8.20;5.63;;;;;;;16.99;84.80;96459.34;3581495;39;20460;-71
2021/07/28 08:51:00;;;;;;;10.70;6.53;;;;;;;17.22;82.06;96457.13;3583119;39;20450;-71
2021/07/28 08:53:29;;;;;;;8.67;6.57;;;;;;;16.95;82.38;96456.16;3579531;39;20475;-72
2021/07/28 08:56:00;;;;;;;12.10;5.53;;;;;;;17.34;80.99;96455.09;3579917;39;20954;-72
2021/07/28 08:58:28;;;;;;;7.10;5.40;;;;;;;17.45;80.00;96449.56;3580832;39;21096;-70
2021/07/28 09:00:57;;;;;;;9.43;5.50;;;;;;;17.94;78.80;96449.97;3582711;39;20530;-72
2021/07/28 09:03:25;;;;;;;10.67;6.53;;;;;;;17.89;78.69;96435.53;3573820;39;20468;-71
2021/07/28 09:05:57;;;;;;;15.97;5.43;;;;;;;18.03;78.65;96439.44;3562078;40;21195;-71
2021/07/28 09:08:27;;;;;;;10.00;6.23;;;;;;;17.66;80.76;96437.81;3576787;39;20503;-73
2021/07/28 09:10:56;;;;;;;8.70;5.63;;;;;;;18.48;76.11;96431.22;3579684;39;20540;-71
2021/07/28 09:13:29;;;;;;;7.37;5.93;;;;;;;18.83;75.72;96436.53;3578897;39;20697;-71
2021/07/28 09:15:58;;;;;;;8.63;6.03;;;;;;;18.65;77.24;96423.38;3579121;39;20443;-73
2021/07/28 09:18:32;;;;;;;9.13;5.40;;;;;;;18.36;78.85;96421.91;3577383;39;20709;-72
2021/07/28 09:21:02;;;;;;;10.43;5.90;;;;;;;18.49;76.14;96438.22;3577564;39;20514;-73
2021/07/28 09:23:35;;;;;;;7.20;5.10;;;;;;;18.60;73.58;96445.03;3580955;39;20771;-73
2021/07/28 09:26:05;;;;;;;11.80;6.00;;;;;;;18.81;74.32;96444.66;3575229;39;20452;-71
2021/07/28 09:28:33;;;;;;;7.50;5.20;;;;;;;19.20;73.46;96437.97;3580125;39;20486;-73
2021/07/28 09:31:01;;;;;;;8.73;4.90;;;;;;;18.95;71.10;96451.16;3575942;39;20784;-73
2021/07/28 09:33:29;;;;;;;8.37;4.37;;;;;;;18.82;72.63;96446.34;3575916;39;20457;-72
2021/07/28 09:36:23;;;;;;;7.23;4.90;;;;;;;18.70;73.39;96447.56;3578780;39;20718;-72
2021/07/28 09:38:53;;;;;;;10.90;5.60;;;;;;;18.97;74.14;96451.84;3577625;39;20861;-71
2021/07/28 09:41:25;;;;;;;8.30;5.20;;;;;;;19.35;70.46;96460.25;3579052;39;20437;-72
2021/07/28 09:43:56;;;;;;;9.00;5.00;;;;;;;19.29;69.46;96461.72;3579331;39;20916;-72
2021/07/28 09:46:27;;;;;;;8.40;5.10;;;;;;;19.30;70.89;96462.53;3579237;39;20883;-72
2021/07/28 09:48:55;;;;;;;6.90;5.20;;;;;;;19.44;71.96;96466.38;3579985;39;20536;-72
2021/07/28 09:51:32;;;;;;;11.77;4.80;;;;;;;19.25;70.36;96467.50;3577565;39;20882;-72
2021/07/28 09:54:02;;;;;;;11.97;5.50;;;;;;;18.99;71.54;96465.78;3583121;39;21195;-74
2021/07/28 09:56:45;;;;;;;12.03;5.10;;;;;;;18.85;72.38;96461.09;3579715;39;20896;-71
2021/07/28 09:59:13;;;;;;;6.33;5.13;;;;;;;19.04;73.66;96470.63;3579348;39;20468;-73
2021/07/28 10:01:42;;;;;;;10.70;6.00;;;;;;;19.32;70.75;96463.22;3581892;39;20437;-71
2021/07/28 10:04:12;;;;;;;7.90;5.20;;;;;;;19.08;71.37;96469.28;3583814;39;20472;-72
2021/07/28 10:06:44;;;;;;;9.53;4.60;;;;;;;19.03;70.10;96472.41;3582974;39;21103;-73
2021/07/28 10:09:14;;;;;;;7.63;5.37;;;;;;;19.21;70.26;96467.00;3578714;39;20477;-71
2021/07/28 10:11:44;;;;;;;6.97;4.90;;;;;;;18.70;71.23;96466.97;3571510;40;20589;-70
2021/07/28 10:14:17;;;;;;;7.07;5.07;;;;;;;18.70;73.26;96466.97;3577641;39;20495;-70
2021/07/28 10:16:45;;;;;;;7.70;4.80;;;;;;;18.58;71.93;96473.53;3579334;39;20554;-70
2021/07/28 10:19:13;;;;;;;7.50;5.23;;;;;;;18.49;72.35;96471.84;3572491;39;20822;-73
2021/07/28 10:21:55;;;;;;;7.50;4.27;;;;;;;18.43;71.68;96470.66;3577502;39;20523;-71
2021/07/28 10:24:24;;;;;;;9.73;4.80;;;;;;;18.60;72.41;96462.78;3576653;39;20477;-72
2021/07/28 10:26:54;;;;;;;9.20;5.73;;;;;;;18.57;73.19;96458.63;3578141;39;20814;-70
2021/07/28 10:29:27;;;;;;;11.63;4.87;;;;;;;18.46;71.40;96467.69;3569143;39;21174;-71
2021/07/28 10:31:56;;;;;;;7.10;4.70;;;;;;;18.75;71.03;96464.66;3578224;39;20459;-71
2021/07/28 10:34:26;;;;;;;11.10;4.50;;;;;;;19.45;68.71;96460.09;3577252;39;20832;-70
2021/07/28 10:37:01;;;;;;;16.20;5.60;;;;;;;20.24;65.01;96463.88;3577498;39;20876;-70
2021/07/28 10:39:43;;;;;;;6.80;4.23;;;;;;;20.73;64.03;96461.13;3576533;39;20468;-72
2021/07/28 10:42:12;;;;;;;8.40;5.00;;;;;;;19.93;67.20;96458.44;3576753;39;20759;-70
2021/07/28 10:45:00;;;;;;;7.97;5.00;;;;;;;20.94;65.28;96454.38;3577331;39;20468;-72
2021/07/28 10:47:41;;;;;;;12.70;4.20;;;;;;;21.08;62.03;96448.31;3578394;39;20460;-72
2021/07/28 10:50:53;;;;;;;10.43;4.80;;;;;;;21.59;61.67;96455.84;3578611;40;20754;-72
2021/07/28 10:53:47;;;;;;;9.00;4.83;;;;;;;21.40;60.93;96462.44;3578897;39;20892;-73
2021/07/28 10:56:15;;;;;;;8.40;5.10;;;;;;;21.56;60.04;96447.38;3578148;39;20471;-72
2021/07/28 10:58:42;;;;;;;6.60;4.20;;;;;;;21.70;59.64;96449.28;3578058;39;20478;-72
2021/07/28 11:01:10;;;;;;;5.60;4.30;;;;;;;21.96;58.13;96437.41;3580334;39;20453;-72
2021/07/28 11:03:39;;;;;;;8.63;5.00;;;;;;;21.59;61.49;96431.88;3580141;39;20559;-71
2021/07/28 11:06:18;;;;;;;6.50;4.90;;;;;;;20.72;61.79;96440.84;3582701;39;20571;-72
2021/07/28 11:08:47;;;;;;;9.70;4.53;;;;;;;20.25;64.25;96440.81;3580297;39;20467;-71
2021/07/28 11:11:30;;;;;;;7.47;4.70;;;;;;;20.33;66.15;96446.94;3581224;39;20456;-71
2021/07/28 11:14:05;;;;;;;8.13;6.07;;;;;;;20.77;63.17;96452.81;3579781;39;20840;-73
2021/07/28 11:16:35;;;;;;;7.27;5.03;;;;;;;20.50;65.52;96447.72;3580622;40;20855;-72
2021/07/28 11:19:04;;;;;;;8.90;4.93;;;;;;;20.34;65.47;96445.09;3580440;39;20910;-72
2021/07/28 11:21:36;;;;;;;9.80;4.67;;;;;;;20.11;67.97;96447.63;3581364;39;20780;-72
2021/07/28 11:24:06;;;;;;;6.77;4.47;;;;;;;20.09;67.47;96444.31;3582582;39;20901;-71
2021/07/28 11:26:36;;;;;;;6.37;4.50;;;;;;;19.88;68.34;96448.34;3582017;39;20456;-73
2021/07/28 11:29:07;;;;;;;10.67;5.10;;;;;;;19.65;69.53;96437.50;3585983;39;20881;-71
2021/07/28 11:31:38;;;;;;;10.37;4.83;;;;;;;19.81;68.90;96441.19;3584874;39;20922;-73
2021/07/28 11:34:15;;;;;;;7.47;5.17;;;;;;;19.39;70.85;96437.66;3578985;39;20930;-73
2021/07/28 11:36:46;;;;;;;28.30;15.33;;;;;;;19.65;70.50;96434.03;3567974;39;20732;-71
2021/07/28 11:39:18;;;;;;;7.20;5.10;;;;;;;20.10;68.50;96440.66;3579604;39;20828;-71
2021/07/28 11:41:49;;;;;;;7.70;4.97;;;;;;;20.83;67.04;96441.47;3577306;39;20463;-71